createdAt,value
2022-08-03T04:00:32.473Z,1003.84
2022-08-03T04:01:32.358Z,1003.78
2022-08-03T04:02:32.365Z,1003.76
2022-08-03T04:03:32.399Z,1003.80
2022-08-03T04:04:32.321Z,1003.77
2022-08-03T04:05:32.307Z,1003.77
2022-08-03T04:06:32.305Z,1003.71
2022-08-03T04:07:32.299Z,1003.71
2022-08-03T04:08:32.279Z,1003.67
2022-08-03T04:09:32.264Z,1003.71
2022-08-03T04:10:32.253Z,1003.71
2022-08-03T04:11:37.259Z,1003.75
2022-08-03T04:12:32.381Z,1003.78
2022-08-03T04:13:32.239Z,1003.78
2022-08-03T04:14:32.217Z,1003.78
2022-08-03T04:15:32.257Z,1003.79
2022-08-03T04:16:32.193Z,1003.83
2022-08-03T04:17:32.248Z,1003.84
2022-08-03T04:18:32.192Z,1003.92
2022-08-03T04:19:32.154Z,1003.87
2022-08-03T04:20:32.175Z,1003.79
2022-08-03T04:21:32.147Z,1003.83
2022-08-03T04:22:37.170Z,1003.80
2022-08-03T04:23:32.121Z,1003.81
2022-08-03T04:24:32.105Z,1003.85
2022-08-03T04:25:32.091Z,1003.86
2022-08-03T04:26:32.103Z,1003.88
2022-08-03T04:27:32.087Z,1003.87
2022-08-03T04:28:32.197Z,1003.89
2022-08-03T04:29:32.048Z,1003.94
2022-08-03T04:30:32.053Z,1003.89
2022-08-03T04:31:32.056Z,1003.92
2022-08-03T04:32:32.041Z,1003.96
2022-08-03T04:33:37.024Z,1003.92
2022-08-03T04:34:32.109Z,1003.94
2022-08-03T04:36:01.956Z,1003.98
2022-08-03T04:36:32.981Z,1003.95
2022-08-03T04:37:32.171Z,1003.93
2022-08-03T04:38:31.946Z,1003.95
2022-08-03T04:39:31.941Z,1003.95
2022-08-03T04:40:31.945Z,1003.98
2022-08-03T04:41:31.907Z,1004.00
2022-08-03T04:42:31.918Z,1003.98
2022-08-03T04:43:31.898Z,1003.99
2022-08-03T04:44:37.040Z,1003.96
2022-08-03T04:45:31.874Z,1003.99
2022-08-03T04:46:31.860Z,1003.98
2022-08-03T04:47:31.870Z,1004.00
2022-08-03T04:48:31.868Z,1004.02
2022-08-03T04:49:31.917Z,1004.07
2022-08-03T04:50:31.810Z,1003.97
2022-08-03T04:51:31.830Z,1004.02
2022-08-03T04:52:31.843Z,1004.01
2022-08-03T04:53:31.777Z,1003.96
2022-08-03T04:54:31.768Z,1004.04
2022-08-03T04:55:36.886Z,1004.03
2022-08-03T04:56:31.769Z,1004.00
2022-08-03T04:57:31.757Z,1003.95
2022-08-03T04:58:31.793Z,1004.01
2022-08-03T04:59:31.721Z,1003.98
2022-08-03T05:00:31.705Z,1004.05
2022-08-03T05:01:31.796Z,1004.04
2022-08-03T05:02:31.814Z,1004.00
2022-08-03T05:03:31.680Z,1004.05
2022-08-03T05:04:31.673Z,1004.01
2022-08-03T05:05:49.731Z,1004.02
2022-08-03T05:06:47.812Z,1004.00
2022-08-03T05:07:36.455Z,1004.00
2022-08-03T05:08:31.622Z,1004.03
2022-08-03T05:09:45.997Z,1004.01
2022-08-03T05:10:32.589Z,1004.02
2022-08-03T05:11:31.578Z,1004.01
2022-08-03T05:12:33.195Z,1004.07
2022-08-03T05:13:31.563Z,1004.02
2022-08-03T05:14:31.559Z,1004.07
2022-08-03T05:15:31.556Z,1004.04
2022-08-03T05:16:31.571Z,1004.05
2022-08-03T05:17:36.562Z,1004.08
2022-08-03T05:18:31.497Z,1004.03
2022-08-03T05:19:31.498Z,1004.03
2022-08-03T05:20:31.511Z,1004.09
2022-08-03T05:21:51.959Z,1004.05
2022-08-03T05:22:32.487Z,1004.07
2022-08-03T05:23:31.507Z,1004.05
2022-08-03T05:24:31.434Z,1004.08
2022-08-03T05:25:31.429Z,1004.07
2022-08-03T05:26:31.507Z,1004.09
2022-08-03T05:27:31.439Z,1004.04
2022-08-03T05:28:36.422Z,1004.07
2022-08-03T05:29:31.377Z,1004.13
2022-08-03T05:30:34.180Z,1004.04
2022-08-03T05:31:31.358Z,1004.13
2022-08-03T05:32:31.374Z,1004.02
2022-08-03T05:33:31.338Z,1004.03
2022-08-03T05:34:31.322Z,1004.10
2022-08-03T05:35:56.072Z,1004.13
2022-08-03T05:36:32.376Z,1004.08
2022-08-03T05:37:31.317Z,1004.10
2022-08-03T05:38:33.911Z,1004.13
2022-08-03T05:39:36.297Z,1004.11
2022-08-03T05:40:31.263Z,1004.18
2022-08-03T05:41:36.929Z,1004.14
2022-08-03T05:42:32.247Z,1004.16
2022-08-03T05:43:31.222Z,1004.16
2022-08-03T05:44:31.217Z,1004.17
2022-08-03T05:45:31.206Z,1004.22
2022-08-03T05:46:31.188Z,1004.19
2022-08-03T05:47:31.202Z,1004.24
2022-08-03T05:48:31.170Z,1004.14
2022-08-03T05:49:31.232Z,1004.15
2022-08-03T05:50:39.853Z,1004.18
2022-08-03T05:51:32.145Z,1004.16
2022-08-03T05:52:31.161Z,1004.19
2022-08-03T05:53:31.110Z,1004.12
2022-08-03T05:54:56.374Z,1004.18
2022-08-03T05:55:32.095Z,1004.12
2022-08-03T05:56:31.076Z,1004.16
2022-08-03T05:57:31.082Z,1004.15
2022-08-03T05:58:31.057Z,1004.12
2022-08-03T05:59:38.700Z,1004.17
2022-08-03T06:00:32.071Z,1004.11
2022-08-03T06:01:36.097Z,1004.17
2022-08-03T06:02:31.083Z,1004.18
2022-08-03T06:03:31.031Z,1004.23
2022-08-03T06:04:31.006Z,1004.26
2022-08-03T06:05:31.025Z,1004.27
2022-08-03T06:06:32.475Z,1004.21
2022-08-03T06:07:31.003Z,1004.17
2022-08-03T06:08:30.957Z,1004.23
2022-08-03T06:09:31.818Z,1004.23
2022-08-03T06:10:37.209Z,1004.23
2022-08-03T06:11:31.916Z,1004.22
2022-08-03T06:12:35.983Z,1004.20
2022-08-03T06:13:30.897Z,1004.24
2022-08-03T06:14:30.884Z,1004.25
2022-08-03T06:15:30.876Z,1004.19
2022-08-03T06:16:30.882Z,1004.24
2022-08-03T06:17:37.465Z,1004.21
2022-08-03T06:18:31.855Z,1004.18
2022-08-03T06:19:30.847Z,1004.20
2022-08-03T06:20:30.902Z,1004.28
2022-08-03T06:21:30.807Z,1004.22
2022-08-03T06:22:30.794Z,1004.25
2022-08-03T06:23:53.873Z,1004.25
2022-08-03T06:24:31.772Z,1004.23
2022-08-03T06:25:30.783Z,1004.26
2022-08-03T06:26:30.772Z,1004.25
2022-08-03T06:27:37.132Z,1004.18
2022-08-03T06:28:51.354Z,1004.20
2022-08-03T06:29:31.733Z,1004.18
2022-08-03T06:30:30.710Z,1004.21
2022-08-03T06:31:32.963Z,1004.20
2022-08-03T06:32:30.682Z,1004.17
2022-08-03T06:34:30.588Z,1004.17
2022-08-03T06:34:36.681Z,1004.21
2022-08-03T06:35:30.648Z,1004.23
2022-08-03T06:36:30.647Z,1004.24
2022-08-03T06:37:30.631Z,1004.21
2022-08-03T06:38:30.659Z,1004.25
2022-08-03T06:39:30.655Z,1004.27
2022-08-03T06:40:30.606Z,1004.21
2022-08-03T06:41:30.596Z,1004.25
2022-08-03T06:42:31.571Z,1004.23
2022-08-03T06:43:30.587Z,1004.15
2022-08-03T06:44:31.562Z,1004.23
2022-08-03T06:45:35.561Z,1004.23
2022-08-03T06:46:30.533Z,1004.20
2022-08-03T06:47:30.527Z,1004.21
2022-08-03T06:48:30.575Z,1004.26
2022-08-03T06:49:30.537Z,1004.21
2022-08-03T06:50:30.481Z,1004.20
2022-08-03T06:52:03.112Z,1004.22
2022-08-03T06:52:37.948Z,1004.25
2022-08-03T06:53:31.493Z,1004.21
2022-08-03T06:54:33.352Z,1004.23
2022-08-03T06:55:30.427Z,1004.31
2022-08-03T06:56:35.448Z,1004.33
2022-08-03T06:57:30.411Z,1004.33
2022-08-03T06:58:30.413Z,1004.34
2022-08-03T07:00:09.005Z,1004.27
2022-08-03T07:00:31.372Z,1004.33
2022-08-03T07:01:30.479Z,1004.29
2022-08-03T07:02:30.378Z,1004.33
2022-08-03T07:03:30.353Z,1004.36
2022-08-03T07:04:30.326Z,1004.35
2022-08-03T07:05:30.335Z,1004.33
2022-08-03T07:06:30.307Z,1004.34
2022-08-03T07:07:35.322Z,1004.33
2022-08-03T07:08:33.461Z,1004.25
2022-08-03T07:09:30.311Z,1004.32
2022-08-03T07:10:30.265Z,1004.36
2022-08-03T07:11:30.254Z,1004.38
2022-08-03T07:12:30.383Z,1004.34
2022-08-03T07:13:30.248Z,1004.36
2022-08-03T07:14:30.232Z,1004.38
2022-08-03T07:15:53.999Z,1004.42
2022-08-03T07:16:31.201Z,1004.40
2022-08-03T07:17:30.743Z,1004.46
2022-08-03T07:18:35.250Z,1004.37
2022-08-03T07:19:30.174Z,1004.38
2022-08-03T07:20:32.611Z,1004.41
2022-08-03T07:21:30.146Z,1004.42
2022-08-03T07:22:30.147Z,1004.39
2022-08-03T07:23:30.122Z,1004.41
2022-08-03T07:24:30.117Z,1004.39
2022-08-03T07:25:30.114Z,1004.48
2022-08-03T07:26:30.090Z,1004.42
2022-08-03T07:27:30.089Z,1004.44
2022-08-03T07:28:30.067Z,1004.46
2022-08-03T07:29:35.091Z,1004.38
2022-08-03T07:30:30.042Z,1004.40
2022-08-03T07:31:34.391Z,1004.46
2022-08-03T07:32:30.018Z,1004.48
2022-08-03T07:33:30.022Z,1004.36
2022-08-03T07:34:30.032Z,1004.43
2022-08-03T07:35:29.994Z,1004.39
2022-08-03T07:36:30.027Z,1004.44
2022-08-03T07:37:29.976Z,1004.41
2022-08-03T07:38:29.953Z,1004.34
2022-08-03T07:39:29.955Z,1004.40
2022-08-03T07:40:34.954Z,1004.40
2022-08-03T07:41:29.932Z,1004.41
2022-08-03T07:42:29.924Z,1004.37
2022-08-03T07:43:29.906Z,1004.34
2022-08-03T07:44:29.928Z,1004.36
2022-08-03T07:45:29.927Z,1004.36
2022-08-03T07:46:29.877Z,1004.38
2022-08-03T07:47:35.443Z,1004.40
2022-08-03T07:48:30.850Z,1004.38
2022-08-03T07:49:29.934Z,1004.26
2022-08-03T07:50:29.832Z,1004.37
2022-08-03T07:51:34.839Z,1004.36
2022-08-03T07:52:29.802Z,1004.32
2022-08-03T07:53:29.793Z,1004.37
2022-08-03T07:54:29.842Z,1004.35
2022-08-03T07:55:29.802Z,1004.28
2022-08-03T07:56:29.762Z,1004.38
2022-08-03T07:57:29.760Z,1004.39
2022-08-03T07:58:29.786Z,1004.35
2022-08-03T07:59:29.727Z,1004.42
2022-08-03T08:00:30.724Z,1004.32
2022-08-03T08:01:29.843Z,1004.32
2022-08-03T08:02:34.726Z,1004.38
2022-08-03T08:03:29.705Z,1004.42
2022-08-03T08:04:30.709Z,1004.36
2022-08-03T08:05:29.675Z,1004.35
2022-08-03T08:06:29.667Z,1004.32
2022-08-03T08:07:29.639Z,1004.33
2022-08-03T08:08:29.629Z,1004.36
2022-08-03T08:09:29.638Z,1004.31
2022-08-03T08:10:29.610Z,1004.34
2022-08-03T08:11:29.604Z,1004.32
2022-08-03T08:12:29.595Z,1004.32
2022-08-03T08:13:34.597Z,1004.28
2022-08-03T08:14:29.633Z,1004.27
2022-08-03T08:15:29.608Z,1004.26
2022-08-03T08:16:29.552Z,1004.29
2022-08-03T08:17:29.557Z,1004.27
2022-08-03T08:18:29.567Z,1004.35
2022-08-03T08:19:29.533Z,1004.31
2022-08-03T08:20:31.437Z,1004.30
2022-08-03T08:21:53.593Z,1004.32
2022-08-03T08:22:31.441Z,1004.20
2022-08-03T08:23:41.698Z,1004.30
2022-08-03T08:24:35.478Z,1004.27
2022-08-03T08:25:29.464Z,1004.26
2022-08-03T08:26:29.433Z,1004.22
2022-08-03T08:28:31.106Z,1004.19
2022-08-03T08:28:33.753Z,1004.28
2022-08-03T08:29:29.421Z,1004.18
2022-08-03T08:30:29.438Z,1004.24
2022-08-03T08:31:29.389Z,1004.23
2022-08-03T08:32:29.400Z,1004.19
2022-08-03T08:33:48.083Z,1004.17
2022-08-03T08:34:30.346Z,1004.20
2022-08-03T08:35:34.381Z,1004.17
2022-08-03T08:36:29.327Z,1004.21
2022-08-03T08:37:29.318Z,1004.20
2022-08-03T08:38:29.308Z,1004.20
2022-08-03T08:39:29.292Z,1004.23
2022-08-03T08:40:29.320Z,1004.21
2022-08-03T08:41:32.096Z,1004.15
2022-08-03T08:42:29.258Z,1004.21
2022-08-03T08:43:29.277Z,1004.22
2022-08-03T08:44:29.238Z,1004.21
2022-08-03T08:45:29.269Z,1004.23
2022-08-03T08:46:34.239Z,1004.18
2022-08-03T08:47:29.210Z,1004.21
2022-08-03T08:48:30.194Z,1004.23
2022-08-03T08:49:29.278Z,1004.20
2022-08-03T08:50:29.280Z,1004.15
2022-08-03T08:51:50.577Z,1004.16
2022-08-03T08:52:32.171Z,1004.16
2022-08-03T08:53:29.172Z,1004.20
2022-08-03T08:54:29.125Z,1004.13
2022-08-03T08:55:29.128Z,1004.13
2022-08-03T08:56:29.139Z,1004.08
2022-08-03T08:57:42.969Z,1004.14
2022-08-03T08:58:30.082Z,1004.16
2022-08-03T08:59:48.741Z,1004.10
2022-08-03T09:00:30.096Z,1004.14
2022-08-03T09:01:29.133Z,1004.13
2022-08-03T09:02:29.038Z,1004.07
2022-08-03T09:03:30.036Z,1004.17
2022-08-03T09:04:29.037Z,1004.12
2022-08-03T09:05:55.047Z,1004.12
2022-08-03T09:06:29.998Z,1004.10
2022-08-03T09:07:28.989Z,1004.17
2022-08-03T09:08:34.018Z,1004.16
2022-08-03T09:10:10.875Z,1004.14
2022-08-03T09:10:29.981Z,1004.12
2022-08-03T09:12:00.961Z,1004.11
2022-08-03T09:12:41.612Z,1004.07
2022-08-03T09:13:29.921Z,1004.13
2022-08-03T09:14:33.666Z,1004.09
2022-08-03T09:15:29.913Z,1004.07
2022-08-03T09:16:28.947Z,1004.07
2022-08-03T09:17:28.881Z,1003.96
2022-08-03T09:18:30.520Z,1004.04
2022-08-03T09:19:33.878Z,1004.05
2022-08-03T09:20:28.865Z,1004.05
2022-08-03T09:21:33.251Z,1004.08
2022-08-03T09:22:29.825Z,1004.15
2022-08-03T09:23:59.016Z,1004.05
2022-08-03T09:24:41.127Z,1004.01
2022-08-03T09:25:29.821Z,1004.02
2022-08-03T09:26:28.878Z,1004.11
2022-08-03T09:27:28.767Z,1004.03
2022-08-03T09:29:00.204Z,1004.07
2022-08-03T09:29:29.790Z,1004.04
2022-08-03T09:30:35.206Z,1004.08
2022-08-03T09:31:28.847Z,1004.11
2022-08-03T09:32:28.716Z,1004.09
2022-08-03T09:33:35.939Z,1004.04
2022-08-03T09:34:29.706Z,1004.08
2022-08-03T09:35:51.598Z,1004.11
2022-08-03T09:36:29.674Z,1004.02
2022-08-03T09:38:12.272Z,1004.03
2022-08-03T09:38:29.660Z,1004.05
2022-08-03T09:39:40.759Z,1004.06
2022-08-03T09:40:29.665Z,1004.03
2022-08-03T09:41:33.641Z,1003.96
2022-08-03T09:42:28.633Z,1004.02
2022-08-03T09:43:28.676Z,1003.97
2022-08-03T09:44:28.584Z,1003.97
2022-08-03T09:45:28.610Z,1004.08
2022-08-03T09:46:28.566Z,1004.00
2022-08-03T09:47:28.578Z,1003.96
2022-08-03T09:48:28.554Z,1003.98
2022-08-03T09:49:28.562Z,1004.02
2022-08-03T09:50:28.544Z,1003.95
2022-08-03T09:52:17.965Z,1003.93
2022-08-03T09:52:37.665Z,1003.92
2022-08-03T09:53:29.494Z,1003.94
2022-08-03T09:54:33.506Z,1003.84
2022-08-03T09:56:32.754Z,1003.85
2022-08-03T09:56:36.217Z,1003.93
2022-08-03T09:57:29.489Z,1003.95
2022-08-03T09:58:28.431Z,1003.84
2022-08-03T09:59:28.422Z,1003.84
2022-08-03T10:00:28.458Z,1003.94
2022-08-03T10:01:28.446Z,1003.96
2022-08-03T10:02:28.458Z,1003.94
2022-08-03T10:03:28.382Z,1003.89
2022-08-03T10:04:28.409Z,1003.93
2022-08-03T10:05:28.400Z,1003.91
2022-08-03T10:06:29.173Z,1003.93
2022-08-03T10:07:33.373Z,1003.91
2022-08-03T10:08:28.368Z,1004.00
2022-08-03T10:09:28.348Z,1003.97
2022-08-03T10:10:29.594Z,1003.93
2022-08-03T10:11:28.382Z,1003.92
2022-08-03T10:12:28.299Z,1003.84
2022-08-03T10:13:28.282Z,1003.91
2022-08-03T10:14:28.305Z,1003.89
2022-08-03T10:16:21.712Z,1003.88
2022-08-03T10:16:29.240Z,1003.91
2022-08-03T10:17:28.244Z,1003.95
2022-08-03T10:18:28.222Z,1003.90
2022-08-03T10:19:28.216Z,1003.83
2022-08-03T10:20:33.243Z,1003.86
2022-08-03T10:21:28.213Z,1003.81
2022-08-03T10:22:28.756Z,1003.80
2022-08-03T10:23:33.159Z,1003.75
2022-08-03T10:24:29.176Z,1003.78
2022-08-03T10:25:33.297Z,1003.79
2022-08-03T10:26:29.138Z,1003.78
2022-08-03T10:27:28.142Z,1003.78
2022-08-03T10:28:28.118Z,1003.78
2022-08-03T10:29:28.138Z,1003.78
2022-08-03T10:30:28.093Z,1003.72
2022-08-03T10:31:28.090Z,1003.71
2022-08-03T10:32:28.080Z,1003.68
2022-08-03T10:33:50.869Z,1003.74
2022-08-03T10:34:29.143Z,1003.69
2022-08-03T10:35:28.081Z,1003.69
2022-08-03T10:36:28.209Z,1003.65
2022-08-03T10:37:28.032Z,1003.64
2022-08-03T10:38:28.011Z,1003.68
2022-08-03T10:39:28.061Z,1003.66
2022-08-03T10:40:51.113Z,1003.61
2022-08-03T10:41:28.991Z,1003.64
2022-08-03T10:42:28.070Z,1003.60
2022-08-03T10:43:27.997Z,1003.59
2022-08-03T10:44:27.981Z,1003.58
2022-08-03T10:45:27.959Z,1003.53
2022-08-03T10:46:32.949Z,1003.54
2022-08-03T10:47:27.931Z,1003.53
2022-08-03T10:48:27.937Z,1003.53
2022-08-03T10:49:34.640Z,1003.46
2022-08-03T10:50:28.943Z,1003.44
2022-08-03T10:51:27.893Z,1003.50
2022-08-03T10:52:31.899Z,1003.48
2022-08-03T10:53:28.962Z,1003.39
2022-08-03T10:54:27.844Z,1003.41
2022-08-03T10:55:27.895Z,1003.46
2022-08-03T10:56:35.463Z,1003.45
2022-08-03T10:57:28.846Z,1003.38
2022-08-03T10:58:30.835Z,1003.45
2022-08-03T10:59:32.835Z,1003.44
2022-08-03T11:00:27.990Z,1003.40
2022-08-03T11:01:27.780Z,1003.37
2022-08-03T11:02:28.754Z,1003.26
2022-08-03T11:03:27.772Z,1003.30
2022-08-03T11:04:27.893Z,1003.34
2022-08-03T11:05:27.737Z,1003.40
2022-08-03T11:06:27.713Z,1003.24
2022-08-03T11:07:28.701Z,1003.37
2022-08-03T11:08:27.715Z,1003.38
2022-08-03T11:09:27.693Z,1003.32
2022-08-03T11:10:27.703Z,1003.43
2022-08-03T11:11:27.649Z,1003.38
2022-08-03T11:12:32.834Z,1003.42
2022-08-03T11:13:27.653Z,1003.45
2022-08-03T11:14:27.677Z,1003.54
2022-08-03T11:15:27.658Z,1003.42
2022-08-03T11:16:27.641Z,1003.38
2022-08-03T11:17:27.590Z,1003.20
2022-08-03T11:18:27.622Z,1003.20
2022-08-03T11:19:27.754Z,1003.29
2022-08-03T11:20:27.611Z,1003.21
2022-08-03T11:21:30.370Z,1003.26
2022-08-03T11:22:27.550Z,1003.41
2022-08-03T11:24:04.780Z,1003.31
2022-08-03T11:24:28.513Z,1003.17
2022-08-03T11:25:54.098Z,1003.54
2022-08-03T11:26:28.551Z,1003.57
2022-08-03T11:27:27.522Z,1003.57
2022-08-03T11:28:27.471Z,1003.56
2022-08-03T11:29:27.606Z,1003.59
2022-08-03T11:30:27.577Z,1003.59
2022-08-03T11:31:48.880Z,1003.60
2022-08-03T11:32:28.519Z,1003.57
2022-08-03T11:33:27.457Z,1003.53
2022-08-03T11:34:27.433Z,1003.54
2022-08-03T11:35:27.450Z,1003.37
2022-08-03T11:36:32.036Z,1003.25
2022-08-03T11:37:33.155Z,1003.12
2022-08-03T11:38:33.390Z,1003.11
2022-08-03T11:39:27.355Z,1003.10
2022-08-03T11:40:27.418Z,1003.09
2022-08-03T11:41:27.367Z,1003.12
2022-08-03T11:42:27.335Z,1003.05
2022-08-03T11:43:30.813Z,1003.12
2022-08-03T11:44:27.318Z,1003.10
2022-08-03T11:45:27.343Z,1003.07
2022-08-03T11:46:28.686Z,1003.16
2022-08-03T11:47:27.278Z,1003.12
2022-08-03T11:48:27.379Z,1003.09
2022-08-03T11:49:32.384Z,1003.10
2022-08-03T11:50:27.277Z,1003.15
2022-08-03T11:51:27.242Z,1003.02
2022-08-03T11:52:28.731Z,1003.09
2022-08-03T11:53:27.217Z,1003.15
2022-08-03T11:54:27.221Z,1003.00
2022-08-03T11:55:30.582Z,1003.18
2022-08-03T11:56:27.211Z,1003.20
2022-08-03T11:59:01.263Z,1003.07
2022-08-03T11:59:10.876Z,1003.35
2022-08-03T11:59:28.160Z,1003.28
2022-08-03T12:00:32.185Z,1003.18
2022-08-03T12:01:27.156Z,1003.35
2022-08-03T12:02:27.149Z,1003.37
2022-08-03T12:03:27.169Z,1003.27
2022-08-03T12:04:27.173Z,1003.31
2022-08-03T12:05:27.195Z,1003.27
2022-08-03T12:06:27.086Z,1003.35
2022-08-03T12:08:03.173Z,1003.16
2022-08-03T12:08:28.095Z,1003.27
2022-08-03T12:09:27.060Z,1003.16
2022-08-03T12:10:27.071Z,1003.23
2022-08-03T12:11:32.095Z,1003.17
2022-08-03T12:12:27.022Z,1003.18
2022-08-03T12:14:44.751Z,1003.17
2022-08-03T12:14:50.074Z,1003.14
2022-08-03T12:15:28.129Z,1003.12
2022-08-03T12:16:27.040Z,1003.17
2022-08-03T12:17:27.003Z,1003.14
2022-08-03T12:18:27.002Z,1003.19
2022-08-03T12:19:26.974Z,1003.22
2022-08-03T12:20:31.289Z,1003.14
2022-08-03T12:21:27.945Z,1003.13
2022-08-03T12:22:31.983Z,1003.10
2022-08-03T12:23:26.927Z,1003.14
2022-08-03T12:24:27.047Z,1003.11
2022-08-03T12:25:38.741Z,1003.14
2022-08-03T12:26:27.900Z,1003.14
2022-08-03T12:27:27.001Z,1003.09
2022-08-03T12:28:31.822Z,1003.09
2022-08-03T12:29:27.877Z,1003.19
2022-08-03T12:30:26.905Z,1003.09
2022-08-03T12:31:26.862Z,1003.08
2022-08-03T12:32:26.849Z,1003.12
2022-08-03T12:33:31.874Z,1003.13
2022-08-03T12:34:27.258Z,1003.08
2022-08-03T12:35:26.829Z,1003.13
2022-08-03T12:36:26.822Z,1003.09
2022-08-03T12:37:26.787Z,1002.96
2022-08-03T12:38:26.794Z,1002.86
2022-08-03T12:39:26.771Z,1002.83
2022-08-03T12:40:28.321Z,1002.79
2022-08-03T12:41:26.754Z,1002.83
2022-08-03T12:42:26.765Z,1002.75
2022-08-03T12:43:26.806Z,1002.82
2022-08-03T12:44:32.773Z,1002.77
2022-08-03T12:45:26.785Z,1002.69
2022-08-03T12:46:26.731Z,1002.75
2022-08-03T12:47:26.698Z,1002.76
2022-08-03T12:48:27.742Z,1002.81
2022-08-03T12:49:26.766Z,1002.73
2022-08-03T12:50:26.719Z,1002.78
2022-08-03T12:51:26.738Z,1002.67
2022-08-03T12:52:26.686Z,1002.81
2022-08-03T12:53:26.666Z,1002.72
2022-08-03T12:54:26.656Z,1002.74
2022-08-03T12:55:31.667Z,1002.68
2022-08-03T12:56:27.889Z,1002.66
2022-08-03T12:57:26.597Z,1002.69
2022-08-03T12:58:26.597Z,1002.62
2022-08-03T12:59:35.018Z,1002.64
2022-08-03T13:00:29.332Z,1002.63
2022-08-03T13:01:26.641Z,1002.61
2022-08-03T13:02:26.666Z,1002.61
2022-08-03T13:03:39.469Z,1002.58
2022-08-03T13:04:27.562Z,1002.55
2022-08-03T13:05:26.519Z,1002.56
2022-08-03T13:06:31.548Z,1002.57
2022-08-03T13:07:26.572Z,1002.59
2022-08-03T13:08:26.526Z,1002.51
2022-08-03T13:09:26.576Z,1002.51
2022-08-03T13:10:26.483Z,1002.52
2022-08-03T13:11:53.476Z,1002.51
2022-08-03T13:12:27.517Z,1002.55
2022-08-03T13:13:26.454Z,1002.55
2022-08-03T13:14:26.434Z,1002.57
2022-08-03T13:15:26.435Z,1002.59
2022-08-03T13:16:27.404Z,1002.57
2022-08-03T13:17:31.418Z,1002.56
2022-08-03T13:18:26.404Z,1002.49
2022-08-03T13:19:26.393Z,1002.54
2022-08-03T13:20:26.478Z,1002.53
2022-08-03T13:21:26.376Z,1002.47
2022-08-03T13:22:26.356Z,1002.43
2022-08-03T13:23:26.328Z,1002.44
2022-08-03T13:24:26.317Z,1002.47
2022-08-03T13:25:26.303Z,1002.52
2022-08-03T13:26:26.307Z,1002.41
2022-08-03T13:28:04.322Z,1002.44
2022-08-03T13:28:27.278Z,1002.47
2022-08-03T13:29:26.295Z,1002.52
2022-08-03T13:30:31.290Z,1002.44
2022-08-03T13:31:26.300Z,1002.46
2022-08-03T13:32:26.272Z,1002.36
2022-08-03T13:33:26.304Z,1002.42
2022-08-03T13:34:26.201Z,1002.41
2022-08-03T13:35:26.189Z,1002.44
2022-08-03T13:36:26.221Z,1002.45
2022-08-03T13:37:26.633Z,1002.36
2022-08-03T13:38:27.139Z,1002.44
2022-08-03T13:39:32.349Z,1002.39
2022-08-03T13:40:30.330Z,1002.35
2022-08-03T13:41:31.049Z,1002.43
2022-08-03T13:42:27.165Z,1002.36
2022-08-03T13:43:31.148Z,1002.38
2022-08-03T13:44:29.819Z,1002.34
2022-08-03T13:45:26.112Z,1002.34
2022-08-03T13:46:26.080Z,1002.31
2022-08-03T13:47:26.086Z,1002.32
2022-08-03T13:48:36.765Z,1002.32
2022-08-03T13:49:27.140Z,1002.29
2022-08-03T13:50:26.045Z,1002.35
2022-08-03T13:51:27.001Z,1002.27
2022-08-03T13:52:26.046Z,1002.29
2022-08-03T13:53:26.023Z,1002.29
2022-08-03T13:54:26.009Z,1002.25
2022-08-03T13:55:26.000Z,1002.17
2022-08-03T13:56:31.002Z,1002.23
2022-08-03T13:58:02.972Z,1002.13
2022-08-03T13:58:27.006Z,1002.21
2022-08-03T13:59:25.941Z,1002.16
2022-08-03T14:00:27.344Z,1002.10
2022-08-03T14:01:54.184Z,1002.15
2022-08-03T14:02:26.973Z,1002.11
2022-08-03T14:03:25.904Z,1002.12
2022-08-03T14:04:25.897Z,1002.10
2022-08-03T14:05:25.899Z,1002.07
2022-08-03T14:06:25.905Z,1002.05
2022-08-03T14:07:25.931Z,1002.09
2022-08-03T14:08:25.868Z,1002.12
2022-08-03T14:09:31.041Z,1002.06
2022-08-03T14:10:25.910Z,1002.00
2022-08-03T14:11:25.841Z,1002.02
2022-08-03T14:12:26.824Z,1001.99
2022-08-03T14:13:25.802Z,1001.97
2022-08-03T14:14:25.788Z,1002.04
2022-08-03T14:15:25.783Z,1001.97
2022-08-03T14:16:25.799Z,1001.99
2022-08-03T14:17:25.785Z,1001.99
2022-08-03T14:18:28.346Z,1001.96
2022-08-03T14:19:26.751Z,1001.95
2022-08-03T14:20:36.292Z,1001.94
2022-08-03T14:21:26.758Z,1001.99
2022-08-03T14:22:30.758Z,1001.88
2022-08-03T14:23:25.724Z,1001.92
2022-08-03T14:24:25.705Z,1001.90
2022-08-03T14:25:25.673Z,1001.93
2022-08-03T14:26:25.667Z,1001.90
2022-08-03T14:27:25.737Z,1001.93
2022-08-03T14:28:25.730Z,1001.90
2022-08-03T14:29:25.643Z,1001.93
2022-08-03T14:30:25.616Z,1001.94
2022-08-03T14:32:09.833Z,1001.92
2022-08-03T14:32:26.666Z,1001.92
2022-08-03T14:33:25.683Z,1001.87
2022-08-03T14:34:25.577Z,1001.86
2022-08-03T14:35:30.601Z,1001.83
2022-08-03T14:36:25.613Z,1001.77
2022-08-03T14:37:25.589Z,1001.80
2022-08-03T14:38:25.592Z,1001.80
2022-08-03T14:39:25.770Z,1001.77
2022-08-03T14:40:25.555Z,1001.77
2022-08-03T14:41:25.515Z,1001.77
2022-08-03T14:42:25.515Z,1001.76
2022-08-03T14:43:25.560Z,1001.73
2022-08-03T14:44:26.478Z,1001.78
2022-08-03T14:45:25.609Z,1001.77
2022-08-03T14:46:25.524Z,1001.79
2022-08-03T14:47:25.499Z,1001.80
2022-08-03T14:50:34.938Z,1001.77
2022-08-03T14:50:36.927Z,1001.84
2022-08-03T14:50:38.880Z,1001.79
2022-08-03T14:51:26.408Z,1001.85
2022-08-03T14:52:26.399Z,1001.83
2022-08-03T14:53:25.426Z,1001.81
2022-08-03T14:54:25.403Z,1001.85
2022-08-03T14:55:25.363Z,1001.77
2022-08-03T14:56:26.380Z,1001.76
2022-08-03T14:57:25.384Z,1001.72
2022-08-03T14:58:25.386Z,1001.72
2022-08-03T14:59:25.343Z,1001.77
2022-08-03T15:00:25.396Z,1001.76
2022-08-03T15:02:06.230Z,1001.71
2022-08-03T15:02:26.384Z,1001.71
2022-08-03T15:03:25.339Z,1001.69
2022-08-03T15:04:25.387Z,1001.65
2022-08-03T15:05:25.258Z,1001.68
2022-08-03T15:06:25.273Z,1001.63
2022-08-03T15:07:25.244Z,1001.69
2022-08-03T15:08:25.249Z,1001.62
2022-08-03T15:09:25.210Z,1001.67
2022-08-03T15:10:30.637Z,1001.56
2022-08-03T15:11:26.189Z,1001.62
2022-08-03T15:12:25.230Z,1001.60
2022-08-03T15:13:25.199Z,1001.54
2022-08-03T15:14:33.225Z,1001.53
2022-08-03T15:15:25.308Z,1001.53
2022-08-03T15:16:25.161Z,1001.54
2022-08-03T15:17:25.134Z,1001.52
2022-08-03T15:18:25.142Z,1001.43
2022-08-03T15:20:03.242Z,1001.42
2022-08-03T15:20:42.447Z,1001.43
2022-08-03T15:21:46.771Z,1001.50
2022-08-03T15:22:35.039Z,1001.35
2022-08-03T15:23:26.103Z,1001.39
2022-08-03T15:24:25.053Z,1001.42
2022-08-03T15:26:28.727Z,1001.37
2022-08-03T15:26:32.781Z,1001.38
2022-08-03T15:27:31.083Z,1001.32
2022-08-03T15:28:25.100Z,1001.34
2022-08-03T15:30:07.434Z,1001.36
2022-08-03T15:30:26.036Z,1001.34
2022-08-03T15:31:25.032Z,1001.40
2022-08-03T15:32:24.966Z,1001.33
2022-08-03T15:33:24.969Z,1001.37
2022-08-03T15:34:24.975Z,1001.29
2022-08-03T15:35:24.938Z,1001.28
2022-08-03T15:36:24.925Z,1001.27
2022-08-03T15:37:25.059Z,1001.27
2022-08-03T15:38:25.761Z,1001.21
2022-08-03T15:39:24.931Z,1001.24
2022-08-03T15:40:29.905Z,1001.23
2022-08-03T15:41:24.897Z,1001.22
2022-08-03T15:42:24.935Z,1001.17
2022-08-03T15:43:24.869Z,1001.27
2022-08-03T15:44:24.851Z,1001.31
2022-08-03T15:45:24.840Z,1001.24
2022-08-03T15:46:29.621Z,1001.27
2022-08-03T15:47:25.815Z,1001.14
2022-08-03T15:48:26.496Z,1001.23
2022-08-03T15:49:24.800Z,1001.22
2022-08-03T15:50:24.781Z,1001.17
2022-08-03T15:51:24.773Z,1001.18
2022-08-03T15:52:24.790Z,1001.16
2022-08-03T15:53:29.868Z,1001.23
2022-08-03T15:54:24.778Z,1001.12
2022-08-03T15:55:24.774Z,1001.13
2022-08-03T15:56:24.718Z,1001.09
2022-08-03T15:57:24.710Z,1001.14
2022-08-03T15:59:07.604Z,1001.17
2022-08-03T15:59:25.712Z,1001.17
2022-08-03T16:00:33.414Z,1001.15
2022-08-03T16:01:25.740Z,1001.07
2022-08-03T16:02:24.705Z,1001.15
2022-08-03T16:03:24.817Z,1001.09
2022-08-03T16:04:24.638Z,1001.04
2022-08-03T16:05:24.644Z,1001.00